sensor_id;sensor_type;location;lat;lon;timestamp;P1;durP1;ratioP1;P2;durP2;ratioP2
15130;SDS011;7666;50.920;4.628;2023-05-10T00:01:15;10.30;;;8.40;;
15130;SDS011;7666;50.920;4.628;2023-05-10T00:04:01;11.03;;;8.03;;
15130;SDS011;7666;50.920;4.628;2023-05-10T00:06:47;11.60;;;7.93;;
15130;SDS011;7666;50.920;4.628;2023-05-10T00:09:33;14.43;;;8.10;;
15130;SDS011;7666;50.920;4.628;2023-05-10T00:12:19;9.67;;;7.50;;
15130;SDS011;7666;50.920;4.628;2023-05-10T00:15:05;11.37;;;7.40;;
15130;SDS011;7666;50.920;4.628;2023-05-10T00:17:52;11.80;;;7.40;;
15130;SDS011;7666;50.920;4.628;2023-05-10T00:20:38;10.03;;;7.57;;
15130;SDS011;7666;50.920;4.628;2023-05-10T00:23:24;11.33;;;7.37;;
15130;SDS011;7666;50.920;4.628;2023-05-10T00:26:10;12.80;;;8.20;;
15130;SDS011;7666;50.920;4.628;2023-05-10T00:28:56;13.93;;;8.20;;
15130;SDS011;7666;50.920;4.628;2023-05-10T00:31:43;11.47;;;7.47;;
15130;SDS011;7666;50.920;4.628;2023-05-10T00:34:29;11.43;;;7.67;;
15130;SDS011;7666;50.920;4.628;2023-05-10T00:37:16;13.83;;;7.90;;
15130;SDS011;7666;50.920;4.628;2023-05-10T00:40:02;15.30;;;8.40;;
15130;SDS011;7666;50.920;4.628;2023-05-10T00:42:48;11.10;;;7.93;;
15130;SDS011;7666;50.920;4.628;2023-05-10T00:45:34;12.43;;;8.87;;
15130;SDS011;7666;50.920;4.628;2023-05-10T00:48:21;15.33;;;9.00;;
15130;SDS011;7666;50.920;4.628;2023-05-10T00:51:07;13.43;;;9.33;;
15130;SDS011;7666;50.920;4.628;2023-05-10T00:53:53;12.83;;;9.10;;
15130;SDS011;7666;50.920;4.628;2023-05-10T00:56:41;13.97;;;8.97;;
15130;SDS011;7666;50.920;4.628;2023-05-10T00:59:27;15.23;;;9.50;;
15130;SDS011;7666;50.920;4.628;2023-05-10T01:02:14;13.07;;;9.00;;
15130;SDS011;7666;50.920;4.628;2023-05-10T01:05:01;14.50;;;9.03;;
15130;SDS011;7666;50.920;4.628;2023-05-10T01:07:48;19.87;;;9.90;;
15130;SDS011;7666;50.920;4.628;2023-05-10T01:10:34;16.00;;;10.17;;
15130;SDS011;7666;50.920;4.628;2023-05-10T01:13:37;18.37;;;10.33;;
15130;SDS011;7666;50.920;4.628;2023-05-10T01:16:27;18.03;;;10.40;;
15130;SDS011;7666;50.920;4.628;2023-05-10T01:19:18;14.93;;;10.30;;
15130;SDS011;7666;50.920;4.628;2023-05-10T01:22:28;14.13;;;9.50;;
15130;SDS011;7666;50.920;4.628;2023-05-10T01:36:08;14.63;;;10.80;;
15130;SDS011;7666;50.920;4.628;2023-05-10T01:47:13;17.73;;;11.57;;
15130;SDS011;7666;50.920;4.628;2023-05-10T01:50:06;16.73;;;11.60;;
15130;SDS011;7666;50.920;4.628;2023-05-10T01:53:02;16.57;;;11.07;;
15130;SDS011;7666;50.920;4.628;2023-05-10T01:55:53;16.57;;;11.40;;
15130;SDS011;7666;50.920;4.628;2023-05-10T01:58:40;17.93;;;11.70;;
15130;SDS011;7666;50.920;4.628;2023-05-10T02:01:31;17.20;;;11.17;;
15130;SDS011;7666;50.920;4.628;2023-05-10T02:04:18;19.63;;;12.37;;
15130;SDS011;7666;50.920;4.628;2023-05-10T02:07:07;20.23;;;12.07;;
15130;SDS011;7666;50.920;4.628;2023-05-10T02:09:55;17.23;;;12.87;;
15130;SDS011;7666;50.920;4.628;2023-05-10T02:12:42;15.43;;;11.90;;
15130;SDS011;7666;50.920;4.628;2023-05-10T02:15:30;15.37;;;11.47;;
15130;SDS011;7666;50.920;4.628;2023-05-10T02:18:16;17.37;;;12.17;;
15130;SDS011;7666;50.920;4.628;2023-05-10T02:21:03;18.03;;;13.37;;
15130;SDS011;7666;50.920;4.628;2023-05-10T02:23:50;18.50;;;13.73;;
15130;SDS011;7666;50.920;4.628;2023-05-10T02:26:38;16.97;;;14.30;;
15130;SDS011;7666;50.920;4.628;2023-05-10T02:29:25;18.13;;;14.33;;
15130;SDS011;7666;50.920;4.628;2023-05-10T02:32:12;18.47;;;14.53;;
15130;SDS011;7666;50.920;4.628;2023-05-10T02:35:00;17.33;;;15.20;;
15130;SDS011;7666;50.920;4.628;2023-05-10T02:37:48;18.00;;;14.03;;
15130;SDS011;7666;50.920;4.628;2023-05-10T02:40:35;16.20;;;12.80;;
15130;SDS011;7666;50.920;4.628;2023-05-10T02:43:23;19.17;;;13.93;;
15130;SDS011;7666;50.920;4.628;2023-05-10T02:46:10;18.37;;;13.73;;
15130;SDS011;7666;50.920;4.628;2023-05-10T02:48:56;15.33;;;13.40;;
15130;SDS011;7666;50.920;4.628;2023-05-10T02:51:49;16.50;;;13.83;;
15130;SDS011;7666;50.920;4.628;2023-05-10T02:54:41;16.57;;;13.80;;
15130;SDS011;7666;50.920;4.628;2023-05-10T02:57:33;19.73;;;13.83;;
15130;SDS011;7666;50.920;4.628;2023-05-10T03:00:21;19.43;;;14.63;;
15130;SDS011;7666;50.920;4.628;2023-05-10T03:03:07;18.97;;;14.37;;
15130;SDS011;7666;50.920;4.628;2023-05-10T03:05:53;17.23;;;13.17;;
15130;SDS011;7666;50.920;4.628;2023-05-10T03:08:41;17.90;;;13.83;;
15130;SDS011;7666;50.920;4.628;2023-05-10T03:20:25;16.73;;;12.70;;
15130;SDS011;7666;50.920;4.628;2023-05-10T03:26:17;16.83;;;14.03;;
15130;SDS011;7666;50.920;4.628;2023-05-10T03:29:09;17.87;;;13.40;;
15130;SDS011;7666;50.920;4.628;2023-05-10T03:31:58;17.67;;;13.90;;
15130;SDS011;7666;50.920;4.628;2023-05-10T03:34:45;18.30;;;12.77;;
15130;SDS011;7666;50.920;4.628;2023-05-10T03:37:30;16.60;;;13.90;;
15130;SDS011;7666;50.920;4.628;2023-05-10T03:40:16;19.93;;;14.17;;
15130;SDS011;7666;50.920;4.628;2023-05-10T03:43:02;20.33;;;14.70;;
15130;SDS011;7666;50.920;4.628;2023-05-10T03:45:48;19.50;;;14.83;;
15130;SDS011;7666;50.920;4.628;2023-05-10T03:48:34;20.70;;;15.37;;
15130;SDS011;7666;50.920;4.628;2023-05-10T03:51:20;20.17;;;14.57;;
15130;SDS011;7666;50.920;4.628;2023-05-10T03:54:07;21.03;;;15.43;;
15130;SDS011;7666;50.920;4.628;2023-05-10T03:56:53;22.70;;;16.83;;
15130;SDS011;7666;50.920;4.628;2023-05-10T03:59:39;23.97;;;16.70;;
15130;SDS011;7666;50.920;4.628;2023-05-10T04:02:25;22.47;;;17.20;;
15130;SDS011;7666;50.920;4.628;2023-05-10T04:05:11;23.00;;;18.03;;
15130;SDS011;7666;50.920;4.628;2023-05-10T04:07:57;22.30;;;17.97;;
15130;SDS011;7666;50.920;4.628;2023-05-10T04:10:43;19.80;;;16.93;;
15130;SDS011;7666;50.920;4.628;2023-05-10T04:13:29;23.10;;;17.83;;
15130;SDS011;7666;50.920;4.628;2023-05-10T04:16:15;20.67;;;17.97;;
15130;SDS011;7666;50.920;4.628;2023-05-10T04:19:01;23.13;;;17.77;;
15130;SDS011;7666;50.920;4.628;2023-05-10T04:21:48;24.47;;;19.83;;
15130;SDS011;7666;50.920;4.628;2023-05-10T04:24:34;22.83;;;19.13;;
15130;SDS011;7666;50.920;4.628;2023-05-10T04:27:20;25.67;;;19.67;;
15130;SDS011;7666;50.920;4.628;2023-05-10T04:30:06;26.30;;;20.07;;
15130;SDS011;7666;50.920;4.628;2023-05-10T04:32:52;24.50;;;20.20;;
15130;SDS011;7666;50.920;4.628;2023-05-10T04:35:38;26.40;;;19.80;;
15130;SDS011;7666;50.920;4.628;2023-05-10T04:38:25;26.97;;;20.13;;
15130;SDS011;7666;50.920;4.628;2023-05-10T04:41:12;28.63;;;21.27;;
15130;SDS011;7666;50.920;4.628;2023-05-10T04:43:58;26.90;;;21.47;;
15130;SDS011;7666;50.920;4.628;2023-05-10T04:46:44;30.93;;;22.43;;
15130;SDS011;7666;50.920;4.628;2023-05-10T04:49:30;28.47;;;22.40;;
15130;SDS011;7666;50.920;4.628;2023-05-10T04:52:16;29.23;;;22.47;;
15130;SDS011;7666;50.920;4.628;2023-05-10T04:55:03;33.03;;;23.87;;
15130;SDS011;7666;50.920;4.628;2023-05-10T04:57:49;33.03;;;23.27;;
15130;SDS011;7666;50.920;4.628;2023-05-10T05:00:35;35.20;;;24.80;;
15130;SDS011;7666;50.920;4.628;2023-05-10T05:03:22;36.13;;;25.17;;
15130;SDS011;7666;50.920;4.628;2023-05-10T05:06:08;34.27;;;24.27;;
15130;SDS011;7666;50.920;4.628;2023-05-10T05:08:54;32.40;;;23.33;;
15130;SDS011;7666;50.920;4.628;2023-05-10T05:11:40;30.53;;;23.50;;
15130;SDS011;7666;50.920;4.628;2023-05-10T05:14:26;32.77;;;23.87;;
15130;SDS011;7666;50.920;4.628;2023-05-10T05:17:12;30.17;;;22.50;;
15130;SDS011;7666;50.920;4.628;2023-05-10T05:19:58;31.93;;;24.60;;
15130;SDS011;7666;50.920;4.628;2023-05-10T05:22:44;29.87;;;22.13;;
15130;SDS011;7666;50.920;4.628;2023-05-10T05:25:30;29.83;;;23.13;;
15130;SDS011;7666;50.920;4.628;2023-05-10T05:28:16;29.77;;;21.33;;
15130;SDS011;7666;50.920;4.628;2023-05-10T05:31:05;30.03;;;22.03;;
15130;SDS011;7666;50.920;4.628;2023-05-10T05:33:52;28.80;;;22.10;;
15130;SDS011;7666;50.920;4.628;2023-05-10T05:36:38;27.90;;;22.03;;
15130;SDS011;7666;50.920;4.628;2023-05-10T05:39:24;30.40;;;22.87;;
15130;SDS011;7666;50.920;4.628;2023-05-10T05:42:11;30.50;;;22.57;;
15130;SDS011;7666;50.920;4.628;2023-05-10T05:44:58;29.53;;;23.00;;
15130;SDS011;7666;50.920;4.628;2023-05-10T05:47:44;29.20;;;23.23;;
15130;SDS011;7666;50.920;4.628;2023-05-10T05:50:30;32.67;;;22.63;;
15130;SDS011;7666;50.920;4.628;2023-05-10T05:53:16;28.93;;;21.40;;
15130;SDS011;7666;50.920;4.628;2023-05-10T05:56:02;28.27;;;21.43;;
15130;SDS011;7666;50.920;4.628;2023-05-10T05:58:48;25.47;;;21.53;;
15130;SDS011;7666;50.920;4.628;2023-05-10T06:01:38;28.73;;;22.17;;
15130;SDS011;7666;50.920;4.628;2023-05-10T06:04:24;28.43;;;21.97;;
15130;SDS011;7666;50.920;4.628;2023-05-10T06:07:10;26.97;;;21.77;;
15130;SDS011;7666;50.920;4.628;2023-05-10T06:09:56;29.83;;;22.77;;
15130;SDS011;7666;50.920;4.628;2023-05-10T06:12:42;28.10;;;22.03;;
15130;SDS011;7666;50.920;4.628;2023-05-10T06:15:28;27.63;;;21.07;;
15130;SDS011;7666;50.920;4.628;2023-05-10T06:18:14;29.60;;;20.27;;
15130;SDS011;7666;50.920;4.628;2023-05-10T06:21:00;25.63;;;19.77;;
15130;SDS011;7666;50.920;4.628;2023-05-10T06:23:46;22.90;;;18.97;;
15130;SDS011;7666;50.920;4.628;2023-05-10T06:26:32;23.27;;;18.93;;
15130;SDS011;7666;50.920;4.628;2023-05-10T06:29:19;24.37;;;19.70;;
15130;SDS011;7666;50.920;4.628;2023-05-10T06:32:05;24.67;;;20.40;;
15130;SDS011;7666;50.920;4.628;2023-05-10T06:34:51;22.20;;;19.10;;
15130;SDS011;7666;50.920;4.628;2023-05-10T06:37:37;22.70;;;19.80;;
15130;SDS011;7666;50.920;4.628;2023-05-10T06:40:23;22.77;;;19.33;;
15130;SDS011;7666;50.920;4.628;2023-05-10T06:43:10;23.30;;;20.63;;
15130;SDS011;7666;50.920;4.628;2023-05-10T06:45:56;25.07;;;20.37;;
15130;SDS011;7666;50.920;4.628;2023-05-10T06:48:42;24.30;;;19.80;;
15130;SDS011;7666;50.920;4.628;2023-05-10T06:51:28;25.80;;;20.47;;
15130;SDS011;7666;50.920;4.628;2023-05-10T06:54:14;24.30;;;19.97;;
15130;SDS011;7666;50.920;4.628;2023-05-10T06:56:59;24.00;;;20.50;;
15130;SDS011;7666;50.920;4.628;2023-05-10T06:59:46;23.13;;;19.53;;
15130;SDS011;7666;50.920;4.628;2023-05-10T07:02:31;20.97;;;18.57;;
15130;SDS011;7666;50.920;4.628;2023-05-10T07:05:17;20.50;;;18.30;;
15130;SDS011;7666;50.920;4.628;2023-05-10T07:08:04;24.50;;;17.93;;
15130;SDS011;7666;50.920;4.628;2023-05-10T07:10:50;19.40;;;16.53;;
15130;SDS011;7666;50.920;4.628;2023-05-10T07:13:36;19.37;;;16.00;;
15130;SDS011;7666;50.920;4.628;2023-05-10T07:16:24;21.00;;;15.47;;
15130;SDS011;7666;50.920;4.628;2023-05-10T07:19:10;18.67;;;15.30;;
15130;SDS011;7666;50.920;4.628;2023-05-10T07:21:56;14.47;;;11.90;;
15130;SDS011;7666;50.920;4.628;2023-05-10T07:24:42;17.37;;;11.03;;
15130;SDS011;7666;50.920;4.628;2023-05-10T07:27:28;12.87;;;10.27;;
15130;SDS011;7666;50.920;4.628;2023-05-10T07:30:14;12.90;;;10.33;;
15130;SDS011;7666;50.920;4.628;2023-05-10T07:33:00;11.17;;;9.03;;
15130;SDS011;7666;50.920;4.628;2023-05-10T07:35:46;10.20;;;7.97;;
15130;SDS011;7666;50.920;4.628;2023-05-10T07:38:32;10.40;;;8.03;;
15130;SDS011;7666;50.920;4.628;2023-05-10T07:41:18;11.23;;;8.73;;
15130;SDS011;7666;50.920;4.628;2023-05-10T07:44:04;12.53;;;7.73;;
15130;SDS011;7666;50.920;4.628;2023-05-10T07:46:51;11.17;;;7.83;;
15130;SDS011;7666;50.920;4.628;2023-05-10T07:49:37;8.87;;;7.07;;
15130;SDS011;7666;50.920;4.628;2023-05-10T07:52:23;10.27;;;7.73;;
15130;SDS011;7666;50.920;4.628;2023-05-10T07:55:09;13.23;;;8.83;;
15130;SDS011;7666;50.920;4.628;2023-05-10T07:57:55;10.33;;;9.00;;
15130;SDS011;7666;50.920;4.628;2023-05-10T08:00:42;13.73;;;9.87;;
15130;SDS011;7666;50.920;4.628;2023-05-10T08:03:28;15.20;;;10.53;;
15130;SDS011;7666;50.920;4.628;2023-05-10T08:06:14;14.30;;;11.10;;
15130;SDS011;7666;50.920;4.628;2023-05-10T08:09:00;14.13;;;10.27;;
15130;SDS011;7666;50.920;4.628;2023-05-10T08:11:46;17.43;;;11.60;;
15130;SDS011;7666;50.920;4.628;2023-05-10T08:14:32;13.67;;;10.97;;
15130;SDS011;7666;50.920;4.628;2023-05-10T08:17:18;15.53;;;11.20;;
15130;SDS011;7666;50.920;4.628;2023-05-10T08:20:04;16.27;;;10.83;;
15130;SDS011;7666;50.920;4.628;2023-05-10T08:22:51;15.73;;;11.10;;
15130;SDS011;7666;50.920;4.628;2023-05-10T08:25:37;14.73;;;11.10;;
15130;SDS011;7666;50.920;4.628;2023-05-10T08:28:23;15.43;;;10.27;;
15130;SDS011;7666;50.920;4.628;2023-05-10T08:31:09;14.03;;;10.40;;
15130;SDS011;7666;50.920;4.628;2023-05-10T08:33:55;15.70;;;10.23;;
15130;SDS011;7666;50.920;4.628;2023-05-10T08:36:41;14.57;;;10.00;;
15130;SDS011;7666;50.920;4.628;2023-05-10T08:39:27;14.77;;;10.10;;
15130;SDS011;7666;50.920;4.628;2023-05-10T08:42:13;11.13;;;9.13;;
15130;SDS011;7666;50.920;4.628;2023-05-10T08:45:05;14.00;;;10.30;;
15130;SDS011;7666;50.920;4.628;2023-05-10T08:47:53;12.93;;;9.30;;
15130;SDS011;7666;50.920;4.628;2023-05-10T08:50:39;13.30;;;10.10;;
15130;SDS011;7666;50.920;4.628;2023-05-10T08:53:27;13.10;;;10.03;;
15130;SDS011;7666;50.920;4.628;2023-05-10T08:56:15;14.50;;;10.27;;
15130;SDS011;7666;50.920;4.628;2023-05-10T08:59:03;12.40;;;10.17;;
15130;SDS011;7666;50.920;4.628;2023-05-10T09:01:49;12.90;;;10.37;;
15130;SDS011;7666;50.920;4.628;2023-05-10T09:04:35;12.50;;;10.20;;
15130;SDS011;7666;50.920;4.628;2023-05-10T09:07:21;16.73;;;10.77;;
15130;SDS011;7666;50.920;4.628;2023-05-10T09:10:08;11.57;;;9.90;;
15130;SDS011;7666;50.920;4.628;2023-05-10T09:12:56;11.87;;;9.80;;
15130;SDS011;7666;50.920;4.628;2023-05-10T09:15:43;12.70;;;10.03;;
15130;SDS011;7666;50.920;4.628;2023-05-10T09:18:30;10.47;;;9.23;;
15130;SDS011;7666;50.920;4.628;2023-05-10T09:21:16;12.33;;;9.20;;
15130;SDS011;7666;50.920;4.628;2023-05-10T09:24:03;11.37;;;9.07;;
15130;SDS011;7666;50.920;4.628;2023-05-10T09:26:50;12.27;;;8.37;;
15130;SDS011;7666;50.920;4.628;2023-05-10T09:29:41;11.17;;;8.63;;
15130;SDS011;7666;50.920;4.628;2023-05-10T09:32:40;11.47;;;8.33;;
15130;SDS011;7666;50.920;4.628;2023-05-10T09:35:29;11.73;;;7.73;;
15130;SDS011;7666;50.920;4.628;2023-05-10T09:38:16;8.87;;;7.27;;
15130;SDS011;7666;50.920;4.628;2023-05-10T09:41:02;9.03;;;7.13;;
15130;SDS011;7666;50.920;4.628;2023-05-10T09:43:48;8.83;;;7.00;;
15130;SDS011;7666;50.920;4.628;2023-05-10T09:46:35;7.30;;;6.33;;
15130;SDS011;7666;50.920;4.628;2023-05-10T09:49:22;8.60;;;6.87;;
15130;SDS011;7666;50.920;4.628;2023-05-10T09:52:08;9.83;;;7.63;;
15130;SDS011;7666;50.920;4.628;2023-05-10T09:54:54;8.63;;;6.30;;
15130;SDS011;7666;50.920;4.628;2023-05-10T09:57:40;7.47;;;6.67;;
15130;SDS011;7666;50.920;4.628;2023-05-10T10:00:26;7.47;;;6.53;;
15130;SDS011;7666;50.920;4.628;2023-05-10T10:03:14;7.97;;;6.90;;
15130;SDS011;7666;50.920;4.628;2023-05-10T10:06:01;7.33;;;6.60;;
15130;SDS011;7666;50.920;4.628;2023-05-10T10:08:47;8.73;;;6.77;;
15130;SDS011;7666;50.920;4.628;2023-05-10T10:11:34;8.60;;;6.90;;
15130;SDS011;7666;50.920;4.628;2023-05-10T10:14:22;9.30;;;7.60;;
15130;SDS011;7666;50.920;4.628;2023-05-10T10:17:09;8.20;;;6.90;;
15130;SDS011;7666;50.920;4.628;2023-05-10T10:19:55;8.40;;;7.30;;
15130;SDS011;7666;50.920;4.628;2023-05-10T10:22:43;7.57;;;5.80;;
15130;SDS011;7666;50.920;4.628;2023-05-10T10:25:29;6.97;;;6.13;;
15130;SDS011;7666;50.920;4.628;2023-05-10T10:28:22;7.03;;;5.93;;
15130;SDS011;7666;50.920;4.628;2023-05-10T10:31:31;6.03;;;5.30;;
15130;SDS011;7666;50.920;4.628;2023-05-10T10:34:25;5.53;;;5.03;;
15130;SDS011;7666;50.920;4.628;2023-05-10T10:37:14;5.60;;;5.00;;
15130;SDS011;7666;50.920;4.628;2023-05-10T10:40:00;7.53;;;4.93;;
15130;SDS011;7666;50.920;4.628;2023-05-10T10:43:25;5.23;;;4.73;;
15130;SDS011;7666;50.920;4.628;2023-05-10T10:46:13;4.67;;;4.20;;
15130;SDS011;7666;50.920;4.628;2023-05-10T10:49:10;4.97;;;3.97;;
15130;SDS011;7666;50.920;4.628;2023-05-10T10:52:15;4.47;;;3.60;;
15130;SDS011;7666;50.920;4.628;2023-05-10T10:55:27;3.83;;;3.43;;
15130;SDS011;7666;50.920;4.628;2023-05-10T10:58:30;3.63;;;3.33;;
15130;SDS011;7666;50.920;4.628;2023-05-10T11:01:19;3.47;;;3.17;;
15130;SDS011;7666;50.920;4.628;2023-05-10T11:06:51;3.37;;;3.00;;
15130;SDS011;7666;50.920;4.628;2023-05-10T11:10:05;4.40;;;3.03;;
15130;SDS011;7666;50.920;4.628;2023-05-10T11:13:00;3.30;;;3.00;;
15130;SDS011;7666;50.920;4.628;2023-05-10T11:15:53;3.87;;;3.10;;
15130;SDS011;7666;50.920;4.628;2023-05-10T11:18:40;3.47;;;3.17;;
15130;SDS011;7666;50.920;4.628;2023-05-10T11:21:26;3.53;;;3.23;;
15130;SDS011;7666;50.920;4.628;2023-05-10T11:24:13;3.40;;;3.10;;
15130;SDS011;7666;50.920;4.628;2023-05-10T11:27:00;3.80;;;2.60;;
15130;SDS011;7666;50.920;4.628;2023-05-10T11:29:46;3.63;;;3.10;;
15130;SDS011;7666;50.920;4.628;2023-05-10T11:32:40;3.37;;;3.07;;
15130;SDS011;7666;50.920;4.628;2023-05-10T11:35:27;3.50;;;3.07;;
15130;SDS011;7666;50.920;4.628;2023-05-10T11:38:13;3.60;;;3.30;;
15130;SDS011;7666;50.920;4.628;2023-05-10T11:40:59;4.87;;;3.00;;
15130;SDS011;7666;50.920;4.628;2023-05-10T11:43:46;3.57;;;3.20;;
15130;SDS011;7666;50.920;4.628;2023-05-10T11:46:34;3.63;;;3.33;;
15130;SDS011;7666;50.920;4.628;2023-05-10T11:49:21;3.90;;;3.50;;
15130;SDS011;7666;50.920;4.628;2023-05-10T11:52:10;3.73;;;3.23;;
15130;SDS011;7666;50.920;4.628;2023-05-10T11:54:57;3.07;;;2.77;;
15130;SDS011;7666;50.920;4.628;2023-05-10T11:57:43;4.10;;;3.37;;
15130;SDS011;7666;50.920;4.628;2023-05-10T12:00:31;3.40;;;3.10;;
15130;SDS011;7666;50.920;4.628;2023-05-10T12:03:17;4.57;;;3.20;;
15130;SDS011;7666;50.920;4.628;2023-05-10T12:06:03;3.63;;;3.33;;
15130;SDS011;7666;50.920;4.628;2023-05-10T12:08:50;3.60;;;3.17;;
15130;SDS011;7666;50.920;4.628;2023-05-10T12:11:39;3.70;;;3.37;;
15130;SDS011;7666;50.920;4.628;2023-05-10T12:14:26;3.30;;;3.00;;
15130;SDS011;7666;50.920;4.628;2023-05-10T12:17:12;3.77;;;3.20;;
15130;SDS011;7666;50.920;4.628;2023-05-10T12:19:59;3.60;;;3.30;;
15130;SDS011;7666;50.920;4.628;2023-05-10T12:22:59;4.17;;;2.97;;
15130;SDS011;7666;50.920;4.628;2023-05-10T12:25:48;3.30;;;3.00;;
15130;SDS011;7666;50.920;4.628;2023-05-10T12:28:34;3.57;;;2.83;;
15130;SDS011;7666;50.920;4.628;2023-05-10T12:31:20;4.30;;;2.73;;
15130;SDS011;7666;50.920;4.628;2023-05-10T12:34:06;3.90;;;3.07;;
15130;SDS011;7666;50.920;4.628;2023-05-10T12:36:54;2.13;;;1.93;;
15130;SDS011;7666;50.920;4.628;2023-05-10T12:39:41;2.90;;;2.60;;
15130;SDS011;7666;50.920;4.628;2023-05-10T12:42:28;3.00;;;2.80;;
15130;SDS011;7666;50.920;4.628;2023-05-10T12:45:17;2.83;;;2.63;;
15130;SDS011;7666;50.920;4.628;2023-05-10T12:48:03;3.27;;;2.80;;
15130;SDS011;7666;50.920;4.628;2023-05-10T12:50:49;4.00;;;2.80;;
15130;SDS011;7666;50.920;4.628;2023-05-10T12:53:35;3.70;;;3.30;;
15130;SDS011;7666;50.920;4.628;2023-05-10T12:56:22;3.00;;;2.70;;
15130;SDS011;7666;50.920;4.628;2023-05-10T12:59:08;3.73;;;2.83;;
15130;SDS011;7666;50.920;4.628;2023-05-10T13:01:54;2.90;;;2.70;;
15130;SDS011;7666;50.920;4.628;2023-05-10T13:04:40;4.10;;;3.20;;
15130;SDS011;7666;50.920;4.628;2023-05-10T13:07:27;4.17;;;3.20;;
15130;SDS011;7666;50.920;4.628;2023-05-10T13:10:13;5.07;;;2.73;;
15130;SDS011;7666;50.920;4.628;2023-05-10T13:12:59;3.30;;;2.70;;
15130;SDS011;7666;50.920;4.628;2023-05-10T13:15:45;4.53;;;2.63;;
15130;SDS011;7666;50.920;4.628;2023-05-10T13:18:31;2.70;;;2.50;;
15130;SDS011;7666;50.920;4.628;2023-05-10T13:21:17;3.80;;;2.80;;
15130;SDS011;7666;50.920;4.628;2023-05-10T13:24:03;5.77;;;3.23;;
15130;SDS011;7666;50.920;4.628;2023-05-10T13:26:49;5.00;;;3.23;;
15130;SDS011;7666;50.920;4.628;2023-05-10T13:29:35;3.90;;;3.30;;
15130;SDS011;7666;50.920;4.628;2023-05-10T13:32:21;3.20;;;2.90;;
15130;SDS011;7666;50.920;4.628;2023-05-10T13:35:07;3.57;;;3.20;;
15130;SDS011;7666;50.920;4.628;2023-05-10T13:37:53;3.20;;;2.90;;
15130;SDS011;7666;50.920;4.628;2023-05-10T13:40:42;3.30;;;3.00;;
15130;SDS011;7666;50.920;4.628;2023-05-10T13:43:28;4.07;;;3.30;;
15130;SDS011;7666;50.920;4.628;2023-05-10T13:46:14;4.10;;;3.00;;
15130;SDS011;7666;50.920;4.628;2023-05-10T13:49:00;4.27;;;2.83;;
15130;SDS011;7666;50.920;4.628;2023-05-10T13:51:47;3.73;;;3.03;;
15130;SDS011;7666;50.920;4.628;2023-05-10T13:54:33;4.00;;;2.97;;
15130;SDS011;7666;50.920;4.628;2023-05-10T13:57:19;3.93;;;3.60;;
15130;SDS011;7666;50.920;4.628;2023-05-10T14:00:06;5.63;;;3.60;;
15130;SDS011;7666;50.920;4.628;2023-05-10T14:02:53;5.70;;;4.80;;
15130;SDS011;7666;50.920;4.628;2023-05-10T14:05:39;7.33;;;4.93;;
15130;SDS011;7666;50.920;4.628;2023-05-10T14:08:25;6.50;;;4.07;;
15130;SDS011;7666;50.920;4.628;2023-05-10T14:11:12;6.63;;;4.23;;
15130;SDS011;7666;50.920;4.628;2023-05-10T14:13:58;6.73;;;4.40;;
15130;SDS011;7666;50.920;4.628;2023-05-10T14:16:44;5.00;;;3.83;;
15130;SDS011;7666;50.920;4.628;2023-05-10T14:19:30;4.20;;;3.80;;
15130;SDS011;7666;50.920;4.628;2023-05-10T14:22:19;4.63;;;3.83;;
15130;SDS011;7666;50.920;4.628;2023-05-10T14:25:05;4.17;;;3.77;;
15130;SDS011;7666;50.920;4.628;2023-05-10T14:27:51;5.27;;;3.60;;
15130;SDS011;7666;50.920;4.628;2023-05-10T14:30:39;6.23;;;3.50;;
15130;SDS011;7666;50.920;4.628;2023-05-10T14:33:25;5.33;;;3.30;;
15130;SDS011;7666;50.920;4.628;2023-05-10T14:36:11;4.37;;;3.37;;
15130;SDS011;7666;50.920;4.628;2023-05-10T14:38:58;3.83;;;3.40;;
15130;SDS011;7666;50.920;4.628;2023-05-10T14:41:44;4.80;;;4.03;;
15130;SDS011;7666;50.920;4.628;2023-05-10T14:44:31;5.77;;;4.23;;
15130;SDS011;7666;50.920;4.628;2023-05-10T14:47:16;4.57;;;3.80;;
15130;SDS011;7666;50.920;4.628;2023-05-10T14:50:02;6.57;;;4.00;;
15130;SDS011;7666;50.920;4.628;2023-05-10T14:52:49;5.33;;;3.80;;
15130;SDS011;7666;50.920;4.628;2023-05-10T14:55:35;4.27;;;3.63;;
15130;SDS011;7666;50.920;4.628;2023-05-10T14:58:22;4.33;;;3.57;;
15130;SDS011;7666;50.920;4.628;2023-05-10T15:01:08;5.73;;;3.93;;
15130;SDS011;7666;50.920;4.628;2023-05-10T15:03:54;6.20;;;5.60;;
15130;SDS011;7666;50.920;4.628;2023-05-10T15:06:40;11.87;;;7.00;;
15130;SDS011;7666;50.920;4.628;2023-05-10T15:09:26;7.30;;;6.60;;
15130;SDS011;7666;50.920;4.628;2023-05-10T15:12:15;11.43;;;7.27;;
15130;SDS011;7666;50.920;4.628;2023-05-10T15:15:01;10.03;;;8.50;;
15130;SDS011;7666;50.920;4.628;2023-05-10T15:17:47;9.60;;;8.40;;
15130;SDS011;7666;50.920;4.628;2023-05-10T15:20:33;9.20;;;7.87;;
15130;SDS011;7666;50.920;4.628;2023-05-10T15:23:20;9.47;;;8.30;;
15130;SDS011;7666;50.920;4.628;2023-05-10T15:26:06;10.30;;;8.83;;
15130;SDS011;7666;50.920;4.628;2023-05-10T15:28:52;11.13;;;9.17;;
15130;SDS011;7666;50.920;4.628;2023-05-10T15:31:38;10.80;;;8.60;;
15130;SDS011;7666;50.920;4.628;2023-05-10T15:34:24;11.40;;;9.27;;
15130;SDS011;7666;50.920;4.628;2023-05-10T15:37:11;10.43;;;9.33;;
15130;SDS011;7666;50.920;4.628;2023-05-10T15:39:57;9.40;;;8.47;;
15130;SDS011;7666;50.920;4.628;2023-05-10T15:42:48;11.43;;;8.60;;
15130;SDS011;7666;50.920;4.628;2023-05-10T15:45:34;12.40;;;8.40;;
15130;SDS011;7666;50.920;4.628;2023-05-10T15:48:20;10.23;;;6.00;;
15130;SDS011;7666;50.920;4.628;2023-05-10T15:51:06;10.40;;;6.23;;
15130;SDS011;7666;50.920;4.628;2023-05-10T15:53:52;9.03;;;6.70;;
15130;SDS011;7666;50.920;4.628;2023-05-10T15:56:39;11.60;;;6.30;;
15130;SDS011;7666;50.920;4.628;2023-05-10T15:59:26;10.57;;;6.43;;
15130;SDS011;7666;50.920;4.628;2023-05-10T16:02:12;10.30;;;6.83;;
15130;SDS011;7666;50.920;4.628;2023-05-10T16:04:58;9.43;;;6.50;;
15130;SDS011;7666;50.920;4.628;2023-05-10T16:07:44;13.67;;;7.00;;
15130;SDS011;7666;50.920;4.628;2023-05-10T16:10:31;10.93;;;7.10;;
15130;SDS011;7666;50.920;4.628;2023-05-10T16:13:19;10.17;;;6.50;;
15130;SDS011;7666;50.920;4.628;2023-05-10T16:16:06;9.53;;;6.13;;
15130;SDS011;7666;50.920;4.628;2023-05-10T16:18:53;10.23;;;6.40;;
15130;SDS011;7666;50.920;4.628;2023-05-10T16:21:39;10.00;;;5.40;;
15130;SDS011;7666;50.920;4.628;2023-05-10T16:24:25;9.07;;;6.40;;
15130;SDS011;7666;50.920;4.628;2023-05-10T16:27:11;8.50;;;5.63;;
15130;SDS011;7666;50.920;4.628;2023-05-10T16:29:57;9.13;;;5.50;;
15130;SDS011;7666;50.920;4.628;2023-05-10T16:32:44;8.57;;;5.23;;
15130;SDS011;7666;50.920;4.628;2023-05-10T16:35:30;7.40;;;5.23;;
15130;SDS011;7666;50.920;4.628;2023-05-10T16:38:16;11.00;;;5.73;;
15130;SDS011;7666;50.920;4.628;2023-05-10T16:41:02;8.93;;;5.97;;
15130;SDS011;7666;50.920;4.628;2023-05-10T16:43:48;11.27;;;6.67;;
15130;SDS011;7666;50.920;4.628;2023-05-10T16:46:34;7.93;;;5.90;;
15130;SDS011;7666;50.920;4.628;2023-05-10T16:49:20;8.07;;;5.63;;
15130;SDS011;7666;50.920;4.628;2023-05-10T16:52:07;9.80;;;5.90;;
15130;SDS011;7666;50.920;4.628;2023-05-10T16:54:53;10.37;;;6.30;;
15130;SDS011;7666;50.920;4.628;2023-05-10T16:57:40;10.13;;;6.60;;
15130;SDS011;7666;50.920;4.628;2023-05-10T17:00:26;9.17;;;6.23;;
15130;SDS011;7666;50.920;4.628;2023-05-10T17:03:12;10.57;;;6.67;;
15130;SDS011;7666;50.920;4.628;2023-05-10T17:05:58;9.43;;;6.63;;
15130;SDS011;7666;50.920;4.628;2023-05-10T17:08:44;9.30;;;7.23;;
15130;SDS011;7666;50.920;4.628;2023-05-10T17:11:31;10.97;;;8.70;;
15130;SDS011;7666;50.920;4.628;2023-05-10T17:14:17;12.00;;;9.10;;
15130;SDS011;7666;50.920;4.628;2023-05-10T17:17:03;13.47;;;9.20;;
15130;SDS011;7666;50.920;4.628;2023-05-10T17:19:49;12.93;;;9.13;;
15130;SDS011;7666;50.920;4.628;2023-05-10T17:22:38;12.93;;;9.67;;